Time;durP1;ratioP1;P1;durP2;ratioP2;P2;SDS_P1;SDS_P2;PMS_P1;PMS_P2;Temp;Humidity;BMP_temperature;BMP_pressure;BME280_temperature;BME280_humidity;BME280_pressure;Samples;Min_cycle;Max_cycle;Signal;HPM_P1;HPM_P2
2021/05/21 00:00:15;;;;;;;2.03;1.40;;;16.10;56.60;;;;;;5115485;28;20164;-88
2021/05/21 00:02:41;;;;;;;5.60;1.98;;;16.00;56.50;;;;;;5098334;28;20181;-89
2021/05/21 00:05:08;;;;;;;5.70;2.00;;;16.00;56.50;;;;;;5098678;28;20176;-87
2021/05/21 00:07:33;;;;;;;3.90;1.60;;;16.00;56.60;;;;;;5098320;28;20259;-85
2021/05/21 00:09:59;;;;;;;11.50;1.90;;;15.90;56.70;;;;;;5094025;28;20217;-87
2021/05/21 00:12:25;;;;;;;3.20;1.60;;;15.90;56.80;;;;;;5077894;28;20288;-88
2021/05/21 00:14:50;;;;;;;3.33;1.50;;;15.80;57.00;;;;;;5078658;28;20193;-87
2021/05/21 00:17:16;;;;;;;2.83;2.17;;;15.70;57.00;;;;;;5094965;28;20253;-88
2021/05/21 00:19:42;;;;;;;3.00;1.53;;;15.70;57.00;;;;;;5078977;28;20451;-86
2021/05/21 00:22:08;;;;;;;1.83;1.20;;;15.80;56.60;;;;;;5077560;28;20227;-87
2021/05/21 00:24:34;;;;;;;2.27;1.60;;;15.80;56.40;;;;;;5094760;28;20189;-87
2021/05/21 00:26:59;;;;;;;1.67;1.00;;;15.90;56.30;;;;;;5088985;28;20253;-86
2021/05/21 00:29:25;;;;;;;5.47;1.53;;;16.00;56.20;;;;;;5083971;28;20216;-87
2021/05/21 00:31:51;;;;;;;4.10;1.40;;;16.10;55.80;;;;;;5096456;28;20172;-88
2021/05/21 00:34:16;;;;;;;1.53;1.30;;;16.00;55.70;;;;;;5080795;28;20173;-87
2021/05/21 00:36:42;;;;;;;1.87;1.10;;;16.10;55.70;;;;;;5079917;28;20176;-87
2021/05/21 00:39:08;;;;;;;4.47;1.70;;;16.00;55.50;;;;;;5092778;28;20175;-87
2021/05/21 00:41:33;;;;;;;3.00;1.47;;;16.10;55.30;;;;;;5117116;28;20195;-88
2021/05/21 00:43:59;;;;;;;2.40;1.40;;;16.10;55.30;;;;;;5117724;28;20184;-87
2021/05/21 00:46:25;;;;;;;1.80;1.20;;;16.10;55.10;;;;;;5121547;28;20347;-89
2021/05/21 00:48:52;;;;;;;4.53;1.70;;;16.00;54.90;;;;;;5125311;28;20214;-89
2021/05/21 00:51:17;;;;;;;1.83;1.27;;;16.00;55.00;;;;;;5134364;28;20172;-90
2021/05/21 00:53:45;;;;;;;1.93;1.50;;;16.10;55.30;;;;;;5129700;28;20271;-88
2021/05/21 00:56:11;;;;;;;3.17;1.70;;;16.00;55.00;;;;;;5128040;28;20209;-88
2021/05/21 00:58:37;;;;;;;2.03;1.30;;;16.10;55.00;;;;;;5129218;28;20187;-88
2021/05/21 01:01:04;;;;;;;3.60;1.33;;;16.10;54.90;;;;;;5112426;28;20422;-89
2021/05/21 01:03:30;;;;;;;1.20;1.10;;;16.10;54.60;;;;;;5130674;28;20250;-89
2021/05/21 01:05:56;;;;;;;7.30;1.73;;;16.20;54.80;;;;;;5113143;28;20172;-89
2021/05/21 01:08:21;;;;;;;4.40;1.55;;;15.90;55.00;;;;;;5095585;28;20462;-90
2021/05/21 01:10:47;;;;;;;2.40;1.20;;;16.00;55.20;;;;;;5091746;28;20675;-89
2021/05/21 01:13:13;;;;;;;3.77;1.50;;;16.00;55.30;;;;;;5082158;28;20503;-89
2021/05/21 01:15:41;;;;;;;3.20;1.27;;;15.90;55.40;;;;;;5076725;28;20234;-88
2021/05/21 01:18:08;;;;;;;1.23;1.10;;;15.90;55.50;;;;;;5076338;28;20206;-88
2021/05/21 01:20:34;;;;;;;5.53;1.50;;;16.00;55.70;;;;;;5077042;28;20260;-88
2021/05/21 01:23:00;;;;;;;1.77;1.00;;;15.90;55.90;;;;;;5076009;28;20200;-88
2021/05/21 01:25:27;;;;;;;5.37;1.70;;;15.80;56.00;;;;;;5076321;28;20242;-87
2021/05/21 01:27:57;;;;;;;9.05;2.97;;;15.80;57.10;;;;;;5071687;28;20420;-88
2021/05/21 01:30:24;;;;;;;12.80;3.08;;;15.80;59.50;;;;;;5065810;28;20181;-88
2021/05/21 01:32:50;;;;;;;17.10;3.92;;;15.60;61.70;;;;;;5089291;28;20208;-88
2021/05/21 01:35:18;;;;;;;10.27;3.23;;;15.50;63.30;;;;;;5066143;28;20651;-88
2021/05/21 01:37:46;;;;;;;14.68;3.58;;;15.40;65.20;;;;;;5065554;28;20415;-88
2021/05/21 01:40:13;;;;;;;11.82;3.03;;;15.20;67.20;;;;;;5060122;28;20226;-88
2021/05/21 01:42:40;;;;;;;16.15;4.47;;;14.90;67.40;;;;;;5061038;28;20620;-87
2021/05/21 01:45:09;;;;;;;11.07;4.00;;;14.90;68.50;;;;;;5067634;28;20189;-87
2021/05/21 01:47:35;;;;;;;11.93;4.13;;;14.90;69.50;;;;;;5071478;28;20180;-86
2021/05/21 01:50:02;;;;;;;13.00;5.87;;;14.80;70.20;;;;;;5076259;28;20216;-87
2021/05/21 01:52:27;;;;;;;20.15;4.43;;;14.80;70.60;;;;;;5073651;28;20185;-87
2021/05/21 01:54:53;;;;;;;19.87;4.60;;;14.80;70.90;;;;;;5074802;28;20211;-87
2021/05/21 01:57:19;;;;;;;24.80;7.40;;;14.80;71.20;;;;;;5074198;28;20280;-87
2021/05/21 01:59:44;;;;;;;21.63;4.30;;;14.80;71.40;;;;;;5068765;28;20181;-87
2021/05/21 02:02:10;;;;;;;22.97;6.43;;;14.70;71.50;;;;;;5071403;28;20189;-87
2021/05/21 02:04:38;;;;;;;19.93;5.87;;;14.70;71.50;;;;;;5065469;28;20271;-88
2021/05/21 02:07:06;;;;;;;19.45;4.32;;;14.70;71.50;;;;;;5054028;28;20181;-87
2021/05/21 02:09:57;;;;;;;17.83;4.25;;;14.70;71.40;;;;;;5058632;28;20212;-88
2021/05/21 02:12:23;;;;;;;10.77;5.32;;;14.70;71.30;;;;;;5082078;28;20538;-88
2021/05/21 02:14:49;;;;;;;14.65;4.28;;;14.80;70.90;;;;;;5111323;28;20176;-88
2021/05/21 02:17:15;;;;;;;15.03;4.63;;;14.70;70.90;;;;;;5111932;28;20199;-88
2021/05/21 02:19:41;;;;;;;10.53;4.80;;;14.70;70.90;;;;;;5111557;28;20266;-88
2021/05/21 02:22:08;;;;;;;16.13;3.70;;;14.70;71.70;;;;;;5111633;28;20206;-88
2021/05/21 02:24:35;;;;;;;15.45;3.45;;;14.90;70.70;;;;;;5112319;28;20247;-88
2021/05/21 02:27:00;;;;;;;17.42;4.80;;;14.90;70.40;;;;;;5095924;28;20215;-88
2021/05/21 02:29:26;;;;;;;17.87;5.67;;;15.00;70.00;;;;;;5111413;28;20207;-88
2021/05/21 02:31:52;;;;;;;14.50;4.20;;;15.00;69.80;;;;;;5111448;28;20865;-88
2021/05/21 02:34:18;;;;;;;9.33;2.60;;;15.00;69.80;;;;;;5114848;28;20506;-88
2021/05/21 02:36:44;;;;;;;9.87;3.07;;;14.90;69.30;;;;;;5115232;28;20176;-88
2021/05/21 02:39:10;;;;;;;9.30;3.03;;;14.90;68.10;;;;;;5104221;28;20530;-87
2021/05/21 02:41:36;;;;;;;12.80;3.90;;;14.80;67.40;;;;;;5081532;28;20402;-86
2021/05/21 02:44:02;;;;;;;8.87;3.23;;;14.80;67.20;;;;;;5097187;28;20571;-86
2021/05/21 02:46:29;;;;;;;8.18;2.72;;;14.90;66.60;;;;;;5081731;28;20411;-87
2021/05/21 02:48:55;;;;;;;9.43;3.38;;;14.90;66.30;;;;;;5099379;28;20215;-87
2021/05/21 02:51:21;;;;;;;13.90;2.53;;;14.90;66.00;;;;;;5099966;28;20173;-87
2021/05/21 02:53:46;;;;;;;9.07;2.67;;;14.90;65.20;;;;;;5081886;28;20227;-87
2021/05/21 02:56:12;;;;;;;6.00;3.10;;;14.80;65.10;;;;;;5115764;28;20194;-87
2021/05/21 02:58:38;;;;;;;7.83;2.00;;;14.90;65.00;;;;;;5081642;28;20230;-87
2021/05/21 03:01:03;;;;;;;6.87;2.17;;;14.90;64.60;;;;;;5077548;28;20233;-87
2021/05/21 03:03:29;;;;;;;11.53;2.50;;;14.80;64.40;;;;;;5093311;28;20231;-88
2021/05/21 03:05:56;;;;;;;5.07;2.15;;;14.90;64.20;;;;;;5078088;28;20419;-87
2021/05/21 03:08:22;;;;;;;10.77;2.47;;;14.90;64.00;;;;;;5082420;28;20219;-87
2021/05/21 03:10:49;;;;;;;5.75;2.17;;;14.90;63.50;;;;;;5084821;28;20185;-87
2021/05/21 03:13:14;;;;;;;9.73;2.15;;;14.90;63.40;;;;;;5086662;28;20201;-87
2021/05/21 03:15:44;;;;;;;7.30;2.03;;;15.00;63.10;;;;;;5086902;28;20176;-87
2021/05/21 03:18:14;;;;;;;6.22;1.70;;;15.00;62.60;;;;;;5087536;28;20407;-87
2021/05/21 03:20:41;;;;;;;7.57;2.13;;;15.00;62.50;;;;;;5088344;28;20177;-87
2021/05/21 03:23:08;;;;;;;10.07;3.30;;;14.90;62.40;;;;;;5105989;28;20200;-87
2021/05/21 03:25:35;;;;;;;3.83;2.00;;;14.80;62.50;;;;;;5090114;28;20177;-88
2021/05/21 03:28:01;;;;;;;4.50;2.47;;;14.80;62.50;;;;;;5098290;28;20172;-87
2021/05/21 03:30:27;;;;;;;7.63;1.83;;;14.70;62.20;;;;;;5110822;28;20183;-89
2021/05/21 03:32:53;;;;;;;12.40;3.60;;;14.80;61.80;;;;;;5130070;28;20267;-88
2021/05/21 03:35:19;;;;;;;12.87;3.20;;;14.70;61.10;;;;;;5118414;28;20181;-88
2021/05/21 03:37:45;;;;;;;11.53;3.63;;;14.70;61.10;;;;;;5131463;28;20695;-88
2021/05/21 03:40:11;;;;;;;12.00;2.40;;;14.60;61.00;;;;;;5092430;28;20442;-87
2021/05/21 03:42:37;;;;;;;7.03;2.40;;;14.60;61.10;;;;;;5089806;28;20366;-88
2021/05/21 03:45:05;;;;;;;8.80;2.20;;;14.70;61.20;;;;;;5094716;28;20188;-87
2021/05/21 03:47:32;;;;;;;14.25;3.97;;;14.60;61.10;;;;;;5076311;28;20173;-87
2021/05/21 03:49:58;;;;;;;7.88;2.45;;;14.60;60.30;;;;;;5076248;28;20633;-87
2021/05/21 03:52:24;;;;;;;11.87;2.70;;;14.50;60.10;;;;;;5076259;28;20277;-87
2021/05/21 03:54:50;;;;;;;10.05;3.22;;;14.50;59.90;;;;;;5076905;28;20176;-87
2021/05/21 03:57:16;;;;;;;14.67;2.93;;;14.50;59.70;;;;;;5086257;28;20207;-87
2021/05/21 03:59:41;;;;;;;15.07;3.57;;;14.40;59.40;;;;;;5091606;28;20558;-88
2021/05/21 04:02:07;;;;;;;13.87;3.70;;;14.30;59.40;;;;;;5097500;28;20199;-86
2021/05/21 04:04:33;;;;;;;11.00;3.30;;;14.40;59.40;;;;;;5097670;28;20442;-86
2021/05/21 04:06:59;;;;;;;11.53;3.13;;;14.40;59.10;;;;;;5080581;28;20180;-87
2021/05/21 04:09:24;;;;;;;6.33;2.40;;;14.50;59.10;;;;;;5071667;28;20201;-87
2021/05/21 04:11:50;;;;;;;13.10;3.70;;;14.40;58.50;;;;;;5070938;28;20209;-87
2021/05/21 04:14:17;;;;;;;22.20;4.67;;;14.40;58.70;;;;;;5071512;28;20177;-88
2021/05/21 04:16:42;;;;;;;23.30;4.30;;;14.40;58.60;;;;;;5072399;28;20249;-88
2021/05/21 04:19:13;;;;;;;30.53;3.93;;;14.40;58.60;;;;;;5071762;28;20204;-88
2021/05/21 04:21:40;;;;;;;14.52;4.50;;;14.50;58.80;;;;;;5071231;28;20526;-88
2021/05/21 04:24:06;;;;;;;7.18;3.70;;;14.60;58.50;;;;;;5056368;28;20208;-88
2021/05/21 04:26:32;;;;;;;21.92;5.88;;;14.60;58.60;;;;;;5072136;28;20177;-89
2021/05/21 04:28:58;;;;;;;9.87;3.90;;;14.60;58.60;;;;;;5088645;28;20690;-88
2021/05/21 04:31:25;;;;;;;10.80;5.22;;;14.70;58.70;;;;;;5091342;28;20496;-88
2021/05/21 04:33:51;;;;;;;19.00;5.10;;;14.70;58.80;;;;;;5074584;28;20227;-87
2021/05/21 04:36:17;;;;;;;10.45;4.43;;;14.70;58.80;;;;;;5091934;28;20191;-88
2021/05/21 04:38:43;;;;;;;13.63;4.10;;;14.80;58.90;;;;;;5091456;28;20184;-87
2021/05/21 04:41:09;;;;;;;6.07;3.35;;;14.90;58.80;;;;;;5091697;28;20177;-88
2021/05/21 04:43:35;;;;;;;15.63;4.13;;;15.10;58.50;;;;;;5092302;28;20226;-87
2021/05/21 04:46:02;;;;;;;12.67;4.70;;;15.10;58.50;;;;;;5091694;28;20415;-88
2021/05/21 04:48:28;;;;;;;19.67;3.92;;;15.40;58.10;;;;;;5092319;28;20201;-88
2021/05/21 04:50:56;;;;;;;11.50;4.03;;;15.40;57.90;;;;;;5074796;28;20180;-88
2021/05/21 04:53:22;;;;;;;17.77;3.63;;;15.20;58.00;;;;;;5074852;28;20193;-88
2021/05/21 04:55:48;;;;;;;9.07;3.20;;;15.30;58.30;;;;;;5074672;28;20176;-88
2021/05/21 04:58:14;;;;;;;10.18;2.63;;;15.50;58.20;;;;;;5077264;28;20414;-87
2021/05/21 05:00:40;;;;;;;11.43;3.37;;;15.30;58.60;;;;;;5078561;28;20272;-89
2021/05/21 05:03:12;;;;;;;15.47;2.27;;;15.50;59.10;;;;;;5087078;28;20196;-88
2021/05/21 05:05:38;;;;;;;7.15;2.22;;;15.60;59.70;;;;;;5077502;28;20418;-90
2021/05/21 05:08:04;;;;;;;9.80;3.42;;;15.50;60.00;;;;;;5087829;28;20601;-90
2021/05/21 05:10:30;;;;;;;4.50;2.20;;;15.50;60.60;;;;;;5088779;28;20255;-89
2021/05/21 05:12:56;;;;;;;4.35;2.28;;;15.60;60.70;;;;;;5058170;28;20795;-91
2021/05/21 05:15:22;;;;;;;6.50;2.23;;;15.60;60.80;;;;;;5060754;28;20233;-90
2021/05/21 05:17:50;;;;;;;9.23;2.42;;;15.80;60.90;;;;;;5073166;28;20492;-90
2021/05/21 05:20:20;;;;;;;7.53;2.20;;;15.80;61.10;;;;;;5076455;28;20177;-90
2021/05/21 05:22:46;;;;;;;6.63;2.10;;;15.80;61.10;;;;;;5071498;28;20256;-90
2021/05/21 05:25:12;;;;;;;8.90;2.23;;;15.80;61.40;;;;;;5079205;28;20238;-91
2021/05/21 05:27:37;;;;;;;8.93;3.08;;;16.00;60.80;;;;;;5090787;28;20212;-88
2021/05/21 05:30:05;;;;;;;9.37;2.30;;;16.00;60.60;;;;;;5088490;28;20212;-88
2021/05/21 05:32:31;;;;;;;13.27;2.58;;;15.80;59.50;;;;;;5089958;28;20220;-89
2021/05/21 05:34:57;;;;;;;10.00;2.40;;;15.80;59.40;;;;;;5085949;28;20188;-90
2021/05/21 05:37:22;;;;;;;7.60;2.33;;;15.80;59.60;;;;;;5062301;28;20176;-89
2021/05/21 05:39:48;;;;;;;11.13;2.57;;;15.80;59.60;;;;;;5105469;28;20639;-88
2021/05/21 05:42:14;;;;;;;10.77;2.30;;;15.90;59.70;;;;;;5080351;28;20201;-88
2021/05/21 05:44:40;;;;;;;10.02;1.90;;;15.90;60.00;;;;;;5084734;28;20275;-89
2021/05/21 05:47:06;;;;;;;7.87;2.80;;;15.90;60.00;;;;;;5080777;28;20188;-87
2021/05/21 05:49:32;;;;;;;5.13;2.40;;;15.80;59.90;;;;;;5077314;28;20208;-88
2021/05/21 05:51:57;;;;;;;6.00;2.20;;;16.10;60.30;;;;;;5078073;28;20961;-87
2021/05/21 05:54:23;;;;;;;6.30;2.00;;;17.00;58.90;;;;;;5077719;28;20430;-89
2021/05/21 05:56:49;;;;;;;7.75;2.40;;;18.30;56.40;;;;;;5079892;28;20177;-88
2021/05/21 05:59:15;;;;;;;6.40;2.93;;;19.10;51.80;;;;;;5080464;28;20176;-89
2021/05/21 06:01:40;;;;;;;6.33;2.00;;;20.20;50.10;;;;;;5083543;28;20662;-87
2021/05/21 06:04:06;;;;;;;6.03;2.20;;;21.40;47.00;;;;;;5089790;28;20188;-87
2021/05/21 06:06:32;;;;;;;12.47;2.73;;;21.90;44.40;;;;;;5086714;28;20176;-87
2021/05/21 06:08:58;;;;;;;9.43;2.67;;;21.80;43.30;;;;;;5083812;28;20212;-89
2021/05/21 06:11:25;;;;;;;7.30;2.27;;;20.80;43.40;;;;;;5083632;28;20419;-89
2021/05/21 06:13:51;;;;;;;11.07;2.35;;;19.90;45.90;;;;;;5088605;28;20204;-89
2021/05/21 06:16:17;;;;;;;12.98;3.42;;;19.30;48.20;;;;;;5093125;28;20244;-88
2021/05/21 06:18:43;;;;;;;6.75;2.70;;;18.80;50.70;;;;;;5091297;28;20198;-88
2021/05/21 06:21:09;;;;;;;11.23;2.67;;;17.80;52.30;;;;;;5083798;28;20176;-89
2021/05/21 06:23:37;;;;;;;8.93;2.72;;;17.50;54.40;;;;;;5096151;28;20437;-89
2021/05/21 06:26:13;;;;;;;8.52;2.58;;;17.20;55.20;;;;;;5095288;28;20188;-89
2021/05/21 06:28:41;;;;;;;11.98;3.00;;;17.50;55.50;;;;;;5078727;28;20207;-89
2021/05/21 06:31:09;;;;;;;19.85;3.65;;;17.90;54.40;;;;;;5077455;28;20193;-88
2021/05/21 06:33:35;;;;;;;9.38;2.85;;;18.30;53.60;;;;;;5078749;28;20566;-88
2021/05/21 06:36:00;;;;;;;14.80;2.90;;;19.10;51.90;;;;;;5079032;28;20181;-88
2021/05/21 06:38:26;;;;;;;12.83;3.50;;;19.80;49.40;;;;;;5077778;28;20173;-88
2021/05/21 06:40:52;;;;;;;8.30;2.40;;;20.50;46.90;;;;;;5078521;28;20183;-88
2021/05/21 06:43:19;;;;;;;12.70;3.20;;;20.90;44.60;;;;;;5077470;28;20445;-87
2021/05/21 06:45:45;;;;;;;4.80;1.90;;;21.20;42.90;;;;;;5076467;28;20468;-87
2021/05/21 06:48:11;;;;;;;7.40;2.87;;;20.70;41.00;;;;;;5074294;28;20427;-86
2021/05/21 06:50:38;;;;;;;8.20;3.00;;;21.00;40.70;;;;;;5057711;28;20192;-87
2021/05/21 06:53:04;;;;;;;8.23;3.70;;;21.70;39.60;;;;;;5058220;28;20197;-88
2021/05/21 06:55:30;;;;;;;7.50;3.07;;;21.60;39.90;;;;;;5059960;28;20411;-86
2021/05/21 06:57:56;;;;;;;6.50;2.80;;;21.00;40.30;;;;;;5058414;28;20219;-87
2021/05/21 07:00:21;;;;;;;18.67;2.87;;;20.80;41.60;;;;;;5057829;28;20358;-87
2021/05/21 07:02:47;;;;;;;11.60;3.33;;;20.40;42.40;;;;;;5058204;28;20207;-87
2021/05/21 07:05:14;;;;;;;13.73;3.10;;;20.30;43.90;;;;;;5083109;28;20165;-87
2021/05/21 07:07:40;;;;;;;7.53;2.75;;;19.90;45.10;;;;;;5091748;28;20498;-89
2021/05/21 07:10:08;;;;;;;9.57;2.58;;;19.40;45.50;;;;;;5094832;28;20263;-88
2021/05/21 07:12:34;;;;;;;14.52;2.78;;;19.00;46.00;;;;;;5093097;28;20189;-89
2021/05/21 07:14:59;;;;;;;7.40;2.67;;;18.90;46.60;;;;;;5092092;28;20287;-88
2021/05/21 07:17:25;;;;;;;16.43;3.00;;;18.60;46.70;;;;;;5093577;28;20409;-89
2021/05/21 07:19:51;;;;;;;12.20;3.00;;;18.30;47.50;;;;;;5092796;28;20172;-86
2021/05/21 07:22:17;;;;;;;11.93;2.50;;;18.10;48.30;;;;;;5097011;28;20496;-87
2021/05/21 07:24:42;;;;;;;8.20;3.50;;;17.90;48.90;;;;;;5095298;28;20168;-87
2021/05/21 07:27:08;;;;;;;10.10;3.30;;;17.90;51.00;;;;;;5078834;28;20618;-87
2021/05/21 07:29:34;;;;;;;13.20;2.97;;;17.80;53.20;;;;;;5078742;28;20679;-87
2021/05/21 07:31:59;;;;;;;18.30;3.57;;;17.70;55.00;;;;;;5095175;28;20188;-89
2021/05/21 07:34:25;;;;;;;18.03;3.60;;;17.30;55.90;;;;;;5096962;28;20196;-87
2021/05/21 07:36:51;;;;;;;8.00;3.40;;;17.10;57.00;;;;;;5079507;28;20411;-87
2021/05/21 07:39:17;;;;;;;20.03;4.13;;;16.90;57.90;;;;;;5088141;28;20414;-87
2021/05/21 07:41:43;;;;;;;17.00;3.40;;;16.70;59.90;;;;;;5098343;28;20552;-86
2021/05/21 07:44:11;;;;;;;12.43;4.85;;;16.50;61.60;;;;;;5099108;28;20179;-87
2021/05/21 07:46:36;;;;;;;14.13;3.75;;;16.50;62.30;;;;;;5098939;28;20171;-87
2021/05/21 07:49:02;;;;;;;12.13;4.57;;;16.40;62.80;;;;;;5098446;28;20228;-87
2021/05/21 07:51:28;;;;;;;22.20;3.50;;;16.30;63.10;;;;;;5098784;28;20178;-86
2021/05/21 07:53:54;;;;;;;14.80;3.60;;;16.20;61.50;;;;;;5103618;28;20460;-87
2021/05/21 07:56:20;;;;;;;8.63;3.07;;;16.60;60.30;;;;;;5115484;28;20401;-89
2021/05/21 07:58:46;;;;;;;13.65;3.65;;;17.00;58.40;;;;;;5118469;28;20171;-88
2021/05/21 08:01:12;;;;;;;14.53;2.80;;;17.30;56.80;;;;;;5115017;28;20180;-87
2021/05/21 08:03:37;;;;;;;10.00;3.07;;;17.50;56.50;;;;;;5088628;28;20243;-87
2021/05/21 08:06:03;;;;;;;19.10;3.10;;;17.70;54.70;;;;;;5077169;28;20181;-87
2021/05/21 08:08:32;;;;;;;13.75;3.13;;;17.60;51.70;;;;;;5093737;28;20561;-87
2021/05/21 08:11:01;;;;;;;14.50;2.97;;;17.60;51.80;;;;;;5077408;28;20212;-89
2021/05/21 08:13:28;;;;;;;7.47;3.22;;;17.70;51.60;;;;;;5077027;28;20575;-88
2021/05/21 08:15:54;;;;;;;13.13;3.22;;;17.80;51.50;;;;;;5077809;28;20615;-88
2021/05/21 08:18:20;;;;;;;15.75;2.70;;;17.90;51.00;;;;;;5078837;28;20195;-88
2021/05/21 08:20:47;;;;;;;11.93;3.27;;;18.30;49.60;;;;;;5079422;28;20172;-88
2021/05/21 08:23:14;;;;;;;10.80;2.92;;;18.50;48.90;;;;;;5080598;28;20199;-88
2021/05/21 08:25:40;;;;;;;12.40;3.35;;;18.60;47.50;;;;;;5091536;28;20184;-89
2021/05/21 08:28:06;;;;;;;11.23;3.25;;;18.40;46.20;;;;;;5089900;28;20184;-89
2021/05/21 08:30:32;;;;;;;9.32;3.25;;;18.60;46.90;;;;;;5101140;28;20188;-89
2021/05/21 08:32:58;;;;;;;8.30;2.37;;;18.50;46.30;;;;;;5102198;28;20199;-89
2021/05/21 08:35:24;;;;;;;14.40;3.07;;;18.60;46.40;;;;;;5085245;28;20169;-89
2021/05/21 08:37:51;;;;;;;19.92;3.22;;;18.60;46.50;;;;;;5086075;28;20180;-88
2021/05/21 08:40:26;;;;;;;14.15;2.50;;;18.60;46.50;;;;;;5082228;28;20184;-89
2021/05/21 08:42:58;;;;;;;11.27;3.35;;;18.60;45.90;;;;;;5081506;28;20196;-89
2021/05/21 08:45:25;;;;;;;10.80;3.17;;;18.30;45.20;;;;;;5079320;28;20559;-89
2021/05/21 08:47:51;;;;;;;8.30;2.80;;;18.10;45.80;;;;;;5079598;28;20176;-89
2021/05/21 08:50:18;;;;;;;9.57;2.73;;;18.10;46.30;;;;;;5076367;28;20346;-89
2021/05/21 08:52:45;;;;;;;14.93;3.85;;;17.90;45.70;;;;;;5074710;28;20469;-88
2021/05/21 08:55:12;;;;;;;9.75;3.55;;;17.70;45.50;;;;;;5075660;28;20188;-89
2021/05/21 08:57:38;;;;;;;21.52;3.42;;;17.60;45.20;;;;;;5075565;28;20549;-89
2021/05/21 09:00:05;;;;;;;16.13;3.05;;;17.70;45.20;;;;;;5075659;28;20261;-88
2021/05/21 09:02:33;;;;;;;8.77;2.75;;;17.80;45.50;;;;;;5074731;28;20204;-89
2021/05/21 09:05:00;;;;;;;14.18;3.72;;;17.90;46.00;;;;;;5077454;28;20191;-89
2021/05/21 09:07:34;;;;;;;16.98;3.20;;;17.60;45.90;;;;;;5075876;28;20233;-89
2021/05/21 09:10:14;;;;;;;12.93;2.75;;;17.10;45.70;;;;;;5075930;28;20257;-88
2021/05/21 09:12:41;;;;;;;17.23;3.28;;;17.20;47.00;;;;;;5076424;28;20728;-89
2021/05/21 09:15:13;;;;;;;8.35;3.97;;;17.20;47.10;;;;;;5075565;28;20234;-89
2021/05/21 09:17:55;;;;;;;9.35;2.55;;;17.30;46.80;;;;;;5078002;28;20169;-89
2021/05/21 09:20:49;;;;;;;5.82;2.63;;;17.10;46.20;;;;;;5076285;28;20181;-89
2021/05/21 09:23:16;;;;;;;14.70;2.50;;;17.20;46.70;;;;;;5077232;28;20215;-86
2021/05/21 09:25:49;;;;;;;15.82;4.93;;;17.30;46.60;;;;;;5082954;28;20207;-86
2021/05/21 09:28:39;;;;;;;17.90;2.78;;;17.30;46.80;;;;;;5091984;28;20195;-86
2021/05/21 09:31:13;;;;;;;11.88;4.20;;;17.00;46.80;;;;;;5084322;28;20215;-86
2021/05/21 09:33:48;;;;;;;11.80;2.67;;;17.00;47.90;;;;;;5080829;28;20192;-86
2021/05/21 09:36:16;;;;;;;16.42;2.90;;;17.20;47.90;;;;;;5080451;28;20164;-87
2021/05/21 09:38:45;;;;;;;11.02;2.95;;;17.50;47.60;;;;;;5079951;28;20196;-86
2021/05/21 09:41:12;;;;;;;6.97;3.17;;;17.90;47.20;;;;;;5096108;28;20270;-86
2021/05/21 09:43:37;;;;;;;10.38;2.50;;;18.20;45.70;;;;;;5083111;28;20295;-85
2021/05/21 09:46:11;;;;;;;9.80;2.77;;;18.50;45.00;;;;;;5082796;28;20204;-86
2021/05/21 09:48:37;;;;;;;12.40;2.60;;;18.50;43.80;;;;;;5082799;28;20273;-85
2021/05/21 09:51:04;;;;;;;7.90;2.60;;;18.60;43.60;;;;;;5083509;28;20180;-86
2021/05/21 09:53:33;;;;;;;8.60;2.03;;;18.70;43.20;;;;;;5084583;28;20426;-86
2021/05/21 09:56:01;;;;;;;6.40;2.67;;;18.80;41.80;;;;;;5083146;28;20176;-85
2021/05/21 09:58:28;;;;;;;6.00;2.15;;;18.90;42.20;;;;;;5084051;28;20362;-85
2021/05/21 10:01:19;;;;;;;17.08;3.17;;;19.10;41.90;;;;;;5083371;28;20596;-86
2021/05/21 10:03:50;;;;;;;10.63;2.63;;;19.00;41.00;;;;;;5082770;28;20547;-88
2021/05/21 10:06:17;;;;;;;17.77;3.15;;;18.70;42.10;;;;;;5079971;28;20212;-88
2021/05/21 10:08:45;;;;;;;11.68;3.50;;;18.60;42.90;;;;;;5079518;28;20224;-88
2021/05/21 10:11:11;;;;;;;9.45;2.65;;;18.20;45.50;;;;;;5078889;28;20211;-87
2021/05/21 10:13:42;;;;;;;7.03;2.20;;;17.90;48.60;;;;;;5078546;28;20200;-87
2021/05/21 10:16:09;;;;;;;15.65;3.40;;;17.70;49.50;;;;;;5079055;28;20674;-86
2021/05/21 10:18:35;;;;;;;11.68;2.88;;;17.60;50.00;;;;;;5079667;28;20222;-86
2021/05/21 10:21:02;;;;;;;13.43;2.60;;;17.50;49.80;;;;;;5077930;28;20241;-88
2021/05/21 10:23:35;;;;;;;10.45;2.35;;;17.30;49.50;;;;;;5078239;28;20275;-86
2021/05/21 10:26:07;;;;;;;11.50;3.13;;;17.20;49.40;;;;;;5079734;28;20172;-87
2021/05/21 10:28:34;;;;;;;7.20;2.35;;;17.00;49.20;;;;;;5080915;28;20193;-86
2021/05/21 10:31:02;;;;;;;11.88;2.65;;;17.10;48.90;;;;;;5083225;28;20176;-87
2021/05/21 10:33:33;;;;;;;6.60;2.22;;;17.20;48.80;;;;;;5097927;28;20192;-89
2021/05/21 10:36:23;;;;;;;13.43;2.63;;;17.30;47.90;;;;;;5080082;28;20184;-88
2021/05/21 10:39:08;;;;;;;12.68;2.35;;;17.40;47.90;;;;;;5095515;28;20180;-88
2021/05/21 10:41:48;;;;;;;14.63;3.20;;;17.80;46.80;;;;;;5077681;28;20202;-89
2021/05/21 10:44:19;;;;;;;12.88;3.20;;;17.70;45.30;;;;;;5079668;28;20510;-89
2021/05/21 10:46:46;;;;;;;10.20;2.40;;;17.90;45.80;;;;;;5079418;28;20176;-88
2021/05/21 10:49:25;;;;;;;16.88;4.15;;;17.90;45.90;;;;;;5080488;28;20216;-88
2021/05/21 10:51:56;;;;;;;6.32;2.42;;;18.10;44.80;;;;;;5078743;28;20180;-89
2021/05/21 10:54:44;;;;;;;16.33;3.47;;;18.10;43.30;;;;;;5082382;28;20176;-88
2021/05/21 10:57:12;;;;;;;20.52;3.15;;;18.20;43.60;;;;;;5082812;28;20275;-89
2021/05/21 11:00:01;;;;;;;6.80;1.80;;;18.30;43.80;;;;;;5079644;28;20184;-86
2021/05/21 11:02:52;;;;;;;4.35;1.98;;;18.40;43.70;;;;;;5079130;28;20208;-87
2021/05/21 11:05:27;;;;;;;11.30;2.08;;;18.20;42.10;;;;;;5076402;28;20192;-87
2021/05/21 11:07:55;;;;;;;5.53;2.60;;;18.20;43.00;;;;;;5061038;28;20185;-87
2021/05/21 11:10:28;;;;;;;9.98;2.70;;;18.40;42.60;;;;;;5063172;28;20197;-87
2021/05/21 11:12:59;;;;;;;7.28;2.22;;;18.40;41.50;;;;;;5080019;28;20208;-88
2021/05/21 11:15:37;;;;;;;8.80;2.40;;;18.70;41.40;;;;;;5084962;28;20166;-88
2021/05/21 11:18:19;;;;;;;10.50;2.38;;;18.40;41.30;;;;;;5077165;28;20203;-89
2021/05/21 11:21:08;;;;;;;15.93;2.47;;;18.60;41.50;;;;;;5072130;28;20242;-89
2021/05/21 11:23:36;;;;;;;19.10;3.20;;;18.80;41.20;;;;;;5060002;28;20197;-88
2021/05/21 11:26:14;;;;;;;8.20;2.20;;;18.70;39.80;;;;;;5059440;28;20182;-89
2021/05/21 11:28:54;;;;;;;10.75;2.58;;;19.20;40.40;;;;;;5058386;28;20236;-89
2021/05/21 11:31:24;;;;;;;5.68;2.10;;;19.20;39.20;;;;;;5058220;28;20177;-88
2021/05/21 11:33:58;;;;;;;11.40;3.78;;;18.90;38.80;;;;;;5059455;28;20193;-88
2021/05/21 11:36:25;;;;;;;6.38;2.65;;;18.70;39.40;;;;;;5060866;28;20251;-89
2021/05/21 11:38:52;;;;;;;18.98;3.58;;;19.00;39.30;;;;;;5075325;28;20177;-89
2021/05/21 11:41:27;;;;;;;13.52;2.80;;;19.10;39.60;;;;;;5087162;28;20200;-88
2021/05/21 11:43:53;;;;;;;7.70;1.95;;;19.00;42.20;;;;;;5099192;28;20218;-89
2021/05/21 11:46:20;;;;;;;14.10;2.43;;;18.90;42.10;;;;;;5097311;28;20164;-89
2021/05/21 11:48:48;;;;;;;7.70;2.42;;;18.90;42.30;;;;;;5086340;28;20480;-88
2021/05/21 11:51:21;;;;;;;6.68;2.05;;;19.00;40.70;;;;;;5078458;28;20298;-88
2021/05/21 11:53:51;;;;;;;10.00;2.65;;;19.20;40.60;;;;;;5078104;28;20374;-89
2021/05/21 11:56:37;;;;;;;9.60;2.75;;;19.20;40.40;;;;;;5077856;28;20187;-89
2021/05/21 11:59:08;;;;;;;8.85;2.22;;;19.50;39.80;;;;;;5076264;28;20196;-89
2021/05/21 12:01:36;;;;;;;8.90;2.53;;;19.60;38.80;;;;;;5093782;28;20188;-88
2021/05/21 12:04:07;;;;;;;7.80;1.77;;;19.50;38.30;;;;;;5093104;28;20565;-89
2021/05/21 12:06:37;;;;;;;14.23;2.42;;;19.60;37.50;;;;;;5089504;28;20172;-89
2021/05/21 12:09:12;;;;;;;14.48;2.25;;;19.20;36.40;;;;;;5102443;28;20715;-88
2021/05/21 12:11:39;;;;;;;7.75;2.17;;;19.20;37.10;;;;;;5093274;28;20271;-89
2021/05/21 12:14:11;;;;;;;6.13;2.00;;;19.10;36.80;;;;;;5103710;28;20228;-89
2021/05/21 12:16:37;;;;;;;4.25;2.17;;;19.20;37.00;;;;;;5103553;28;20196;-89
2021/05/21 12:19:04;;;;;;;5.00;1.50;;;19.20;36.80;;;;;;5077067;28;20176;-88
2021/05/21 12:21:32;;;;;;;9.57;1.90;;;19.10;37.00;;;;;;5076368;28;20746;-89
2021/05/21 12:24:04;;;;;;;6.40;2.25;;;19.20;36.50;;;;;;5077875;28;20211;-89
2021/05/21 12:26:34;;;;;;;6.28;1.85;;;19.20;37.00;;;;;;5077217;28;20180;-88
2021/05/21 12:29:01;;;;;;;3.90;2.10;;;19.20;36.80;;;;;;5076196;28;20246;-88
2021/05/21 12:31:34;;;;;;;14.18;2.67;;;19.10;36.80;;;;;;5075195;28;20191;-88
2021/05/21 12:34:00;;;;;;;12.13;2.50;;;18.80;39.10;;;;;;5076749;28;20215;-89
2021/05/21 12:36:28;;;;;;;6.97;1.63;;;18.50;43.20;;;;;;5094555;28;20175;-89
2021/05/21 12:38:56;;;;;;;13.05;1.73;;;18.30;46.60;;;;;;5097220;28;20175;-89
2021/05/21 12:41:36;;;;;;;10.70;1.73;;;18.00;49.40;;;;;;5093777;28;20207;-88
2021/05/21 12:44:10;;;;;;;4.97;1.77;;;17.60;52.80;;;;;;5093589;28;20268;-88